createdAt,value
2019-06-26T00:02:27.301Z,100.00
2019-06-26T00:04:56.705Z,100.00
2019-06-26T00:07:26.141Z,100.00
2019-06-26T00:09:55.620Z,100.00
2019-06-26T00:12:25.143Z,100.00
2019-06-26T00:14:54.658Z,100.00
2019-06-26T00:17:24.135Z,100.00
2019-06-26T00:19:53.523Z,100.00
2019-06-26T00:22:22.954Z,100.00
2019-06-26T00:24:52.437Z,100.00
2019-06-26T00:27:22.156Z,100.00
2019-06-26T00:29:51.595Z,100.00
2019-06-26T00:32:20.993Z,100.00
2019-06-26T00:34:50.498Z,100.00
2019-06-26T00:37:20.062Z,100.00
2019-06-26T00:39:49.437Z,100.00
2019-06-26T00:42:18.847Z,100.00
2019-06-26T00:44:48.368Z,100.00
2019-06-26T00:47:17.908Z,100.00
2019-06-26T00:49:47.304Z,100.00
2019-06-26T00:52:16.843Z,100.00
2019-06-26T00:54:46.217Z,100.00
2019-06-26T00:57:15.608Z,100.00
2019-06-26T00:59:45.122Z,100.00
2019-06-26T01:02:14.616Z,100.00
2019-06-26T01:04:46.173Z,100.00
2019-06-26T01:07:15.595Z,100.00
2019-06-26T01:09:45.071Z,100.00
2019-06-26T01:12:14.559Z,100.00
2019-06-26T01:14:43.981Z,100.00
2019-06-26T01:17:13.366Z,100.00
2019-06-26T01:19:42.957Z,100.00
2019-06-26T01:22:12.475Z,100.00
2019-06-26T01:24:41.861Z,100.00
2019-06-26T01:27:11.251Z,100.00
2019-06-26T01:29:40.877Z,100.00
2019-06-26T01:32:10.270Z,100.00
2019-06-26T01:34:39.759Z,100.00
2019-06-26T01:37:09.286Z,100.00
2019-06-26T01:39:38.703Z,100.00
2019-06-26T01:42:08.101Z,100.00
2019-06-26T01:44:37.627Z,100.00
2019-06-26T01:47:07.110Z,100.00
2019-06-26T01:49:36.490Z,100.00
2019-06-26T01:52:05.911Z,100.00
2019-06-26T01:54:35.401Z,100.00
2019-06-26T01:57:04.902Z,100.00
2019-06-26T01:59:34.329Z,100.00
2019-06-26T02:02:03.725Z,100.00
2019-06-26T02:04:33.345Z,100.00
2019-06-26T02:07:02.954Z,100.00
2019-06-26T02:09:32.318Z,100.00
2019-06-26T02:12:01.815Z,100.00
2019-06-26T02:14:31.989Z,100.00
2019-06-26T02:17:02.655Z,100.00
2019-06-26T02:19:32.147Z,100.00
2019-06-26T02:22:01.674Z,100.00
2019-06-26T02:24:31.067Z,100.00
2019-06-26T02:27:00.496Z,100.00
2019-06-26T02:29:30.071Z,100.00
2019-06-26T02:31:59.631Z,100.00
2019-06-26T02:34:29.039Z,100.00
2019-06-26T02:36:58.491Z,100.00
2019-06-26T02:39:28.272Z,100.00
2019-06-26T02:41:57.758Z,100.00
2019-06-26T02:44:27.174Z,100.00
2019-06-26T02:47:13.606Z,100.00
2019-06-26T02:49:27.756Z,100.00
2019-06-26T02:51:57.216Z,100.00
2019-06-26T02:54:26.664Z,100.00
2019-06-26T02:56:56.153Z,100.00
2019-06-26T02:59:25.581Z,100.00
2019-06-26T03:01:54.954Z,100.00
2019-06-26T03:04:24.456Z,100.00
2019-06-26T03:06:53.963Z,100.00
2019-06-26T03:09:23.543Z,100.00
2019-06-26T03:11:52.938Z,100.00
2019-06-26T03:14:22.482Z,100.00
2019-06-26T03:16:51.981Z,100.00
2019-06-26T03:19:21.632Z,100.00
2019-06-26T03:21:51.075Z,100.00
2019-06-26T03:24:20.570Z,100.00
2019-06-26T03:26:50.058Z,100.00
2019-06-26T03:29:19.496Z,100.00
2019-06-26T03:31:48.892Z,100.00
2019-06-26T03:34:18.356Z,100.00
2019-06-26T03:36:47.898Z,100.00
2019-06-26T03:39:17.280Z,100.00
2019-06-26T03:41:46.685Z,100.00
2019-06-26T03:44:16.326Z,100.00
2019-06-26T03:46:45.799Z,100.00
2019-06-26T03:49:15.193Z,100.00
2019-06-26T03:51:44.662Z,100.00
2019-06-26T03:54:14.146Z,100.00
2019-06-26T03:56:43.652Z,100.00
2019-06-26T03:59:13.077Z,99.46
2019-06-26T04:01:42.532Z,98.70
2019-06-26T04:04:12.159Z,96.36
2019-06-26T04:06:41.798Z,95.27
2019-06-26T04:09:11.533Z,93.55
2019-06-26T04:11:41.034Z,90.42
2019-06-26T04:14:10.468Z,88.70
2019-06-26T04:16:39.853Z,86.88
2019-06-26T04:19:09.341Z,86.86
2019-06-26T04:21:38.990Z,85.54
2019-06-26T04:24:08.370Z,85.29
2019-06-26T04:26:37.773Z,83.44
2019-06-26T04:29:07.392Z,81.70
2019-06-26T04:31:36.890Z,80.69
2019-06-26T04:34:06.253Z,78.92
2019-06-26T04:36:35.733Z,77.02
2019-06-26T04:39:06.933Z,74.25
2019-06-26T04:41:36.440Z,73.04
2019-06-26T04:44:05.842Z,70.46
2019-06-26T04:46:35.256Z,69.76
2019-06-26T04:49:04.957Z,69.69
2019-06-26T04:51:34.421Z,70.83
2019-06-26T04:54:03.914Z,70.21
2019-06-26T04:56:33.482Z,70.40
2019-06-26T04:59:02.898Z,69.39
2019-06-26T05:01:32.282Z,69.10
2019-06-26T05:04:01.830Z,66.76
2019-06-26T05:06:31.391Z,66.76
2019-06-26T05:09:00.770Z,65.08
2019-06-26T05:11:30.162Z,63.71
2019-06-26T05:13:59.687Z,63.66
2019-06-26T05:16:29.186Z,62.22
2019-06-26T05:18:58.604Z,61.16
2019-06-26T05:21:28.046Z,62.62
2019-06-26T05:23:57.578Z,62.01
2019-06-26T05:26:27.117Z,64.46
2019-06-26T05:28:56.537Z,64.99
2019-06-26T05:31:26.043Z,66.22
2019-06-26T05:33:55.420Z,64.38
2019-06-26T05:36:24.898Z,62.34
2019-06-26T05:38:54.466Z,61.81
2019-06-26T05:41:24.022Z,61.59
2019-06-26T05:43:53.436Z,60.08
2019-06-26T05:46:30.996Z,60.98
2019-06-26T05:48:54.009Z,61.78
2019-06-26T05:51:23.541Z,61.91
2019-06-26T05:53:52.920Z,60.86
2019-06-26T05:56:22.320Z,61.71
2019-06-26T05:58:51.941Z,62.29
2019-06-26T06:01:21.777Z,61.40
2019-06-26T06:03:51.232Z,61.12
2019-06-26T06:06:20.687Z,61.54
2019-06-26T06:08:50.252Z,58.79
2019-06-26T06:11:19.912Z,56.86
2019-06-26T06:13:49.425Z,55.09
2019-06-26T06:16:19.056Z,55.32
2019-06-26T06:18:48.436Z,53.77
2019-06-26T06:21:17.868Z,53.97
2019-06-26T06:23:47.333Z,53.05
2019-06-26T06:26:18.207Z,53.70
2019-06-26T06:28:47.637Z,53.51
2019-06-26T06:31:17.010Z,54.61
2019-06-26T06:33:46.502Z,55.41
2019-06-26T06:36:16.012Z,56.56
2019-06-26T06:38:45.393Z,57.01
2019-06-26T06:41:14.763Z,57.77
2019-06-26T06:43:44.268Z,59.88
2019-06-26T06:46:13.736Z,59.42
2019-06-26T06:48:43.110Z,60.01
2019-06-26T06:51:12.931Z,59.89
2019-06-26T06:53:42.317Z,60.25
2019-06-26T06:56:11.751Z,59.76
2019-06-26T06:58:41.335Z,60.05
2019-06-26T07:01:10.841Z,59.46
2019-06-26T07:03:40.313Z,58.87
2019-06-26T07:06:09.695Z,58.92
2019-06-26T07:08:39.201Z,58.00
2019-06-26T07:11:08.676Z,59.46
2019-06-26T07:13:38.092Z,58.48
2019-06-26T07:16:07.490Z,56.97
2019-06-26T07:18:36.979Z,57.03
2019-06-26T07:21:06.614Z,57.51
2019-06-26T07:23:35.996Z,58.51
2019-06-26T07:26:05.601Z,57.64
2019-06-26T07:28:35.214Z,57.21
2019-06-26T07:31:04.634Z,57.75
2019-06-26T07:33:34.145Z,57.34
2019-06-26T07:36:03.873Z,57.42
2019-06-26T07:38:33.326Z,57.32
2019-06-26T07:41:02.894Z,58.53
2019-06-26T07:43:32.689Z,58.87
2019-06-26T07:46:02.139Z,56.91
2019-06-26T07:48:31.513Z,55.36
2019-06-26T07:51:00.925Z,53.61
2019-06-26T07:53:30.404Z,55.08
2019-06-26T07:55:59.901Z,52.29
2019-06-26T07:58:29.342Z,53.38
2019-06-26T08:00:58.749Z,53.61
2019-06-26T08:03:28.209Z,52.39
2019-06-26T08:05:57.820Z,51.56
2019-06-26T08:08:27.362Z,48.33
2019-06-26T08:10:56.828Z,47.92
2019-06-26T08:13:26.308Z,48.55
2019-06-26T08:15:55.714Z,49.47
2019-06-26T08:18:25.240Z,50.56
2019-06-26T08:21:10.995Z,50.58
2019-06-26T08:23:25.892Z,50.07
2019-06-26T08:25:55.293Z,50.36
2019-06-26T08:28:24.883Z,50.55
2019-06-26T08:30:54.369Z,51.62
2019-06-26T08:33:23.790Z,51.00
2019-06-26T08:35:53.184Z,50.71
2019-06-26T08:38:22.752Z,51.17
2019-06-26T08:40:52.238Z,51.89
2019-06-26T08:43:21.734Z,52.10
2019-06-26T08:45:51.232Z,51.68
2019-06-26T08:48:38.373Z,51.27
2019-06-26T08:50:51.927Z,50.08
2019-06-26T08:53:21.310Z,50.03
2019-06-26T08:55:50.694Z,49.23
2019-06-26T08:58:20.206Z,47.54
2019-06-26T09:00:49.668Z,48.96
2019-06-26T09:03:19.043Z,48.34
2019-06-26T09:05:48.874Z,48.78
2019-06-26T09:08:18.755Z,49.55
2019-06-26T09:10:48.416Z,48.76
2019-06-26T09:13:17.868Z,48.95
2019-06-26T09:15:49.945Z,49.76
2019-06-26T09:18:34.288Z,49.56
2019-06-26T09:20:49.829Z,49.66
2019-06-26T09:23:19.201Z,51.62
2019-06-26T09:25:48.592Z,51.79
2019-06-26T09:28:18.094Z,50.28
2019-06-26T09:30:47.464Z,49.22
2019-06-26T09:33:17.005Z,49.01
2019-06-26T09:35:46.539Z,47.84
2019-06-26T09:38:15.909Z,47.17
2019-06-26T09:40:45.290Z,46.35
2019-06-26T09:43:14.815Z,46.43
2019-06-26T09:45:44.349Z,46.91
2019-06-26T09:48:13.716Z,46.02
2019-06-26T09:50:43.299Z,45.95
2019-06-26T09:53:12.770Z,46.04
2019-06-26T09:55:42.241Z,44.30
2019-06-26T09:58:13.420Z,44.43
2019-06-26T10:00:42.849Z,45.33
2019-06-26T10:03:12.375Z,46.63
2019-06-26T10:05:42.367Z,48.43
2019-06-26T10:08:11.727Z,48.57
2019-06-26T10:10:41.192Z,48.99
2019-06-26T10:13:10.596Z,48.88
2019-06-26T10:15:40.092Z,49.86
2019-06-26T10:18:09.652Z,49.37
2019-06-26T10:20:39.318Z,48.24
2019-06-26T10:23:08.680Z,47.07
2019-06-26T10:25:38.062Z,47.72
2019-06-26T10:28:07.576Z,48.63
2019-06-26T10:30:37.066Z,49.59
2019-06-26T10:33:06.437Z,47.92
2019-06-26T10:35:35.937Z,47.63
2019-06-26T10:38:05.534Z,46.58
2019-06-26T10:40:34.995Z,46.17
2019-06-26T10:43:04.674Z,46.05
2019-06-26T10:45:36.220Z,47.28
2019-06-26T10:48:05.621Z,45.48
2019-06-26T10:50:47.481Z,46.95
2019-06-26T10:53:06.444Z,46.17
2019-06-26T10:55:35.934Z,45.08
2019-06-26T10:58:05.399Z,45.58
2019-06-26T11:00:35.006Z,45.75
2019-06-26T11:03:04.982Z,44.55
2019-06-26T11:05:34.612Z,44.93
2019-06-26T11:08:03.983Z,44.03
2019-06-26T11:10:33.370Z,43.54
2019-06-26T11:13:03.054Z,44.13
2019-06-26T11:15:32.612Z,45.16
2019-06-26T11:18:02.028Z,45.98
2019-06-26T11:20:31.535Z,46.00
2019-06-26T11:23:01.065Z,46.91
2019-06-26T11:25:30.613Z,45.75
2019-06-26T11:28:00.032Z,44.97
2019-06-26T11:30:30.584Z,44.16
2019-06-26T11:32:59.938Z,45.17
2019-06-26T11:35:29.337Z,44.82
2019-06-26T11:37:58.795Z,44.59
2019-06-26T11:40:28.252Z,43.37
2019-06-26T11:42:57.727Z,43.55
2019-06-26T11:45:27.099Z,44.27
2019-06-26T11:47:56.563Z,44.00
2019-06-26T11:50:26.393Z,44.11
2019-06-26T11:52:55.746Z,46.20
2019-06-26T11:55:25.143Z,45.15
2019-06-26T11:57:54.650Z,45.76
2019-06-26T12:00:25.221Z,46.52
2019-06-26T12:02:54.617Z,46.73
2019-06-26T12:05:24.058Z,47.00
2019-06-26T12:07:53.660Z,46.85
2019-06-26T12:10:23.448Z,45.34
2019-06-26T12:12:53.016Z,45.43
2019-06-26T12:15:24.061Z,45.13
2019-06-26T12:17:53.480Z,45.65
2019-06-26T12:20:23.018Z,45.90
2019-06-26T12:22:52.551Z,46.12
2019-06-26T12:25:22.023Z,46.28
2019-06-26T12:27:51.429Z,46.19
2019-06-26T12:30:21.501Z,46.15
2019-06-26T12:33:02.298Z,45.24
2019-06-26T12:35:22.450Z,45.44
2019-06-26T12:37:51.776Z,45.26
2019-06-26T12:40:21.325Z,45.93
2019-06-26T12:42:50.836Z,45.81
2019-06-26T12:45:21.008Z,46.55
2019-06-26T12:47:50.377Z,46.30
2019-06-26T12:50:34.887Z,46.06
2019-06-26T12:52:54.354Z,46.36
2019-06-26T12:55:23.721Z,54.74
2019-06-26T12:57:53.770Z,65.76
2019-06-26T13:00:23.333Z,64.46
2019-06-26T13:02:52.712Z,63.52
2019-06-26T13:05:22.509Z,62.64
2019-06-26T13:07:52.035Z,62.20
2019-06-26T13:10:21.603Z,63.03
2019-06-26T13:12:51.005Z,64.36
2019-06-26T13:15:20.495Z,67.30
2019-06-26T13:17:49.993Z,69.36
2019-06-26T13:20:19.604Z,70.36
2019-06-26T13:22:48.953Z,70.18
2019-06-26T13:25:18.410Z,70.36
2019-06-26T13:27:48.419Z,69.26
2019-06-26T13:30:22.777Z,68.32
2019-06-26T13:32:52.290Z,67.06
2019-06-26T13:35:24.247Z,65.97
2019-06-26T13:37:52.866Z,65.60
2019-06-26T13:40:22.349Z,66.48
2019-06-26T13:42:51.818Z,66.37
2019-06-26T13:45:21.279Z,67.52
2019-06-26T13:47:50.724Z,68.62
2019-06-26T13:50:21.512Z,69.67
2019-06-26T13:52:51.040Z,75.43
2019-06-26T13:55:20.541Z,87.05
2019-06-26T13:57:49.918Z,94.08
2019-06-26T14:00:21.104Z,99.77
2019-06-26T14:02:50.642Z,100.00
2019-06-26T14:05:20.214Z,100.00
2019-06-26T14:07:49.609Z,100.00
2019-06-26T14:10:20.734Z,100.00
2019-06-26T14:12:50.271Z,100.00
2019-06-26T14:15:20.765Z,100.00
2019-06-26T14:17:52.436Z,100.00
2019-06-26T14:20:22.452Z,100.00
2019-06-26T14:22:52.116Z,100.00
2019-06-26T14:25:21.626Z,99.98
2019-06-26T14:27:50.984Z,100.00
2019-06-26T14:30:21.710Z,96.81
2019-06-26T14:32:51.222Z,94.39
2019-06-26T14:35:20.784Z,92.28
2019-06-26T14:37:50.163Z,82.74
2019-06-26T14:40:21.089Z,85.16
2019-06-26T14:42:50.672Z,87.82
2019-06-26T14:45:20.225Z,91.37
2019-06-26T14:47:50.262Z,92.73
2019-06-26T14:50:20.636Z,92.62
2019-06-26T14:52:50.036Z,88.38
2019-06-26T14:55:19.590Z,87.21
2019-06-26T14:57:49.164Z,88.93
2019-06-26T15:00:19.211Z,86.15
2019-06-26T15:02:48.648Z,86.39
2019-06-26T15:05:18.126Z,83.76
2019-06-26T15:07:50.123Z,85.63
2019-06-26T15:10:19.323Z,83.51
2019-06-26T15:12:50.171Z,85.06
2019-06-26T15:15:19.879Z,78.35
2019-06-26T15:17:49.376Z,78.97
2019-06-26T15:20:18.959Z,77.41
2019-06-26T15:22:48.443Z,74.00
2019-06-26T15:25:18.782Z,75.40
2019-06-26T15:27:49.993Z,76.22
2019-06-26T15:30:20.470Z,74.29
2019-06-26T15:32:51.349Z,74.78
2019-06-26T15:35:20.978Z,74.08
2019-06-26T15:37:50.369Z,74.66
2019-06-26T15:40:20.283Z,75.35
2019-06-26T15:42:50.035Z,76.15
2019-06-26T15:45:25.074Z,79.44
2019-06-26T15:47:55.452Z,78.67
2019-06-26T15:50:25.690Z,77.95
2019-06-26T15:52:55.684Z,79.39
2019-06-26T15:55:25.394Z,79.66
2019-06-26T15:57:55.981Z,77.40
2019-06-26T16:00:31.991Z,75.44
2019-06-26T16:03:02.217Z,78.66
2019-06-26T16:05:32.011Z,80.28
2019-06-26T16:08:01.847Z,75.72
2019-06-26T16:10:34.428Z,77.26
2019-06-26T16:13:03.737Z,80.47
2019-06-26T16:15:33.721Z,80.87
2019-06-26T16:18:17.939Z,76.86
2019-06-26T16:20:47.550Z,79.00
2019-06-26T16:23:19.042Z,77.02
2019-06-26T16:25:49.501Z,80.55
2019-06-26T16:28:19.061Z,74.57
2019-06-26T16:30:49.611Z,75.25
2019-06-26T16:33:19.071Z,75.67
2019-06-26T16:35:48.562Z,76.77
2019-06-26T16:38:19.323Z,82.16
2019-06-26T16:40:51.793Z,76.62
2019-06-26T16:43:21.286Z,76.08
2019-06-26T16:45:51.188Z,76.92
2019-06-26T16:48:20.776Z,77.35
2019-06-26T16:50:50.350Z,78.18
2019-06-26T16:53:20.154Z,78.62
2019-06-26T16:55:49.920Z,78.64
2019-06-26T16:58:19.356Z,79.22
2019-06-26T17:00:49.468Z,80.45
2019-06-26T17:03:19.018Z,82.23
2019-06-26T17:05:48.929Z,83.66
2019-06-26T17:08:21.498Z,84.92
2019-06-26T17:10:52.286Z,85.33
2019-06-26T17:13:22.655Z,86.57
2019-06-26T17:15:52.736Z,87.07
2019-06-26T17:18:22.685Z,87.57
2019-06-26T17:20:53.288Z,88.51
2019-06-26T17:23:23.352Z,89.51
2019-06-26T17:25:53.029Z,90.97
2019-06-26T17:28:24.253Z,93.45
2019-06-26T17:30:53.859Z,93.94
2019-06-26T17:33:23.750Z,94.28
2019-06-26T17:35:53.280Z,94.89
2019-06-26T17:38:22.778Z,94.14
2019-06-26T17:40:52.268Z,93.99
2019-06-26T17:43:21.726Z,94.94
2019-06-26T17:45:52.974Z,96.65
2019-06-26T17:48:22.471Z,98.78
2019-06-26T17:50:52.015Z,100.00
2019-06-26T17:53:22.358Z,100.00
2019-06-26T17:55:51.828Z,100.00
2019-06-26T17:58:21.411Z,100.00
2019-06-26T18:00:50.919Z,100.00
2019-06-26T18:03:20.316Z,100.00
2019-06-26T18:05:49.775Z,100.00
2019-06-26T18:08:19.356Z,100.00
2019-06-26T18:10:48.795Z,100.00
2019-06-26T18:13:18.400Z,100.00
2019-06-26T18:15:47.912Z,100.00
2019-06-26T18:18:17.294Z,100.00
2019-06-26T18:20:46.742Z,100.00
2019-06-26T18:23:16.243Z,100.00
2019-06-26T18:25:53.822Z,100.00
2019-06-26T18:28:16.934Z,100.00
2019-06-26T18:30:46.364Z,100.00
2019-06-26T18:33:15.889Z,100.00
2019-06-26T18:35:46.652Z,100.00
2019-06-26T18:38:16.042Z,100.00
2019-06-26T18:40:45.744Z,100.00
2019-06-26T18:43:15.268Z,100.00
2019-06-26T18:45:44.780Z,100.00
2019-06-26T18:48:14.120Z,100.00
2019-06-26T18:50:43.632Z,100.00
2019-06-26T18:53:13.805Z,100.00
2019-06-26T18:55:47.049Z,100.00
2019-06-26T18:58:16.594Z,100.00
2019-06-26T19:00:46.076Z,100.00
2019-06-26T19:03:15.528Z,100.00
2019-06-26T19:05:44.936Z,100.00
2019-06-26T19:08:14.477Z,100.00
2019-06-26T19:10:44.213Z,100.00
2019-06-26T19:13:13.611Z,100.00
2019-06-26T19:15:43.070Z,100.00
2019-06-26T19:18:12.733Z,100.00
2019-06-26T19:20:42.308Z,100.00
2019-06-26T19:23:11.824Z,100.00
2019-06-26T19:25:41.288Z,100.00
2019-06-26T19:28:10.812Z,100.00
2019-06-26T19:30:40.711Z,100.00
2019-06-26T19:33:10.169Z,100.00
2019-06-26T19:35:39.588Z,100.00
2019-06-26T19:38:09.163Z,100.00
2019-06-26T19:40:38.734Z,100.00
2019-06-26T19:43:11.019Z,100.00
2019-06-26T19:45:39.313Z,100.00
2019-06-26T19:48:08.884Z,100.00
2019-06-26T19:50:38.433Z,100.00
2019-06-26T19:53:07.838Z,100.00
2019-06-26T19:55:37.299Z,100.00
2019-06-26T19:58:06.843Z,100.00
2019-06-26T20:00:36.383Z,100.00
2019-06-26T20:03:05.876Z,100.00
2019-06-26T20:05:35.269Z,100.00
2019-06-26T20:08:04.774Z,100.00
2019-06-26T20:10:34.415Z,100.00
2019-06-26T20:13:03.886Z,100.00
2019-06-26T20:15:33.424Z,100.00
2019-06-26T20:18:04.314Z,100.00
2019-06-26T20:20:33.950Z,100.00
2019-06-26T20:23:03.459Z,100.00
2019-06-26T20:25:33.023Z,100.00
2019-06-26T20:28:02.434Z,100.00
2019-06-26T20:30:33.492Z,100.00
2019-06-26T20:33:03.095Z,100.00
2019-06-26T20:35:32.603Z,100.00
2019-06-26T20:38:02.054Z,100.00
2019-06-26T20:40:31.553Z,100.00
2019-06-26T20:43:01.040Z,100.00
2019-06-26T20:45:30.771Z,100.00
2019-06-26T20:48:00.203Z,100.00
2019-06-26T20:50:29.691Z,100.00
2019-06-26T20:52:59.096Z,100.00
2019-06-26T20:55:28.554Z,100.00
2019-06-26T20:57:58.158Z,100.00
2019-06-26T21:00:27.763Z,100.00
2019-06-26T21:02:57.200Z,100.00
2019-06-26T21:05:28.900Z,100.00
2019-06-26T21:07:57.860Z,100.00
2019-06-26T21:10:27.431Z,100.00
2019-06-26T21:12:56.835Z,100.00
2019-06-26T21:15:26.235Z,100.00
2019-06-26T21:17:55.785Z,100.00
2019-06-26T21:20:25.278Z,100.00
2019-06-26T21:22:54.767Z,100.00
2019-06-26T21:25:24.511Z,100.00
2019-06-26T21:27:54.074Z,100.00
2019-06-26T21:30:23.480Z,100.00
2019-06-26T21:32:57.542Z,100.00
2019-06-26T21:35:27.705Z,100.00
2019-06-26T21:37:57.123Z,100.00
2019-06-26T21:40:26.753Z,100.00
2019-06-26T21:42:56.331Z,100.00
2019-06-26T21:45:25.838Z,100.00
2019-06-26T21:47:55.279Z,100.00
2019-06-26T21:50:24.698Z,100.00
2019-06-26T21:52:54.960Z,100.00
2019-06-26T21:55:33.683Z,100.00
2019-06-26T21:57:55.719Z,100.00
2019-06-26T22:00:25.177Z,100.00
2019-06-26T22:02:57.690Z,100.00
2019-06-26T22:05:25.981Z,100.00
2019-06-26T22:07:55.485Z,100.00
2019-06-26T22:10:25.008Z,100.00
2019-06-26T22:12:54.410Z,100.00
2019-06-26T22:15:23.890Z,100.00
2019-06-26T22:17:53.528Z,100.00
2019-06-26T22:20:23.164Z,100.00
2019-06-26T22:22:52.722Z,100.00
2019-06-26T22:25:22.267Z,100.00
2019-06-26T22:27:51.764Z,100.00
2019-06-26T22:30:21.467Z,100.00
2019-06-26T22:32:50.972Z,100.00
2019-06-26T22:35:20.362Z,100.00
2019-06-26T22:37:49.862Z,100.00
2019-06-26T22:40:19.503Z,100.00
2019-06-26T22:42:48.967Z,100.00
2019-06-26T22:45:19.080Z,100.00
2019-06-26T22:47:48.633Z,100.00
2019-06-26T22:50:20.011Z,100.00
2019-06-26T22:52:49.490Z,100.00
2019-06-26T22:55:19.113Z,100.00
2019-06-26T22:57:48.568Z,100.00
2019-06-26T23:00:19.755Z,100.00
2019-06-26T23:02:49.289Z,100.00
2019-06-26T23:05:18.793Z,100.00
2019-06-26T23:07:48.200Z,100.00
2019-06-26T23:10:18.957Z,100.00
2019-06-26T23:12:48.475Z,100.00
2019-06-26T23:15:18.176Z,100.00
2019-06-26T23:17:47.734Z,100.00
2019-06-26T23:20:17.132Z,100.00
2019-06-26T23:22:46.720Z,100.00
2019-06-26T23:25:16.548Z,100.00
2019-06-26T23:27:45.945Z,100.00
2019-06-26T23:30:19.573Z,100.00
2019-06-26T23:32:49.113Z,100.00
2019-06-26T23:35:18.534Z,100.00
2019-06-26T23:37:48.165Z,100.00
2019-06-26T23:40:18.659Z,100.00
2019-06-26T23:42:48.066Z,100.00
2019-06-26T23:45:18.298Z,100.00
2019-06-26T23:47:47.881Z,100.00
2019-06-26T23:50:17.981Z,100.00
2019-06-26T23:52:47.405Z,100.00
2019-06-26T23:55:16.863Z,100.00
2019-06-26T23:57:58.423Z,100.00
